createdAt,value
2023-03-21T00:00:34.108Z,11.80
2023-03-21T00:03:00.729Z,11.80
2023-03-21T00:05:27.491Z,11.80
2023-03-21T00:07:54.545Z,11.80
2023-03-21T00:13:09.400Z,11.80
2023-03-21T00:16:01.885Z,11.80
2023-03-21T00:18:41.669Z,11.80
2023-03-21T00:21:38.361Z,11.70
2023-03-21T00:23:59.246Z,11.70
2023-03-21T00:26:25.980Z,11.70
2023-03-21T00:28:53.049Z,11.70
2023-03-21T00:31:19.709Z,11.70
2023-03-21T00:33:46.361Z,11.70
2023-03-21T00:36:13.675Z,11.70
2023-03-21T00:38:40.427Z,11.70
2023-03-21T00:41:20.947Z,11.70
2023-03-21T00:43:55.403Z,11.70
2023-03-21T00:46:25.210Z,11.70
2023-03-21T00:48:52.156Z,11.70
2023-03-21T00:51:26.463Z,11.70
2023-03-21T00:53:56.070Z,11.60
2023-03-21T00:56:22.749Z,11.60
2023-03-21T00:58:49.576Z,11.60
2023-03-21T01:01:16.446Z,11.60
2023-03-21T01:03:43.157Z,11.50
2023-03-21T01:06:13.695Z,11.60
2023-03-21T01:08:55.513Z,11.60
2023-03-21T01:11:25.967Z,11.50
2023-03-21T01:14:07.163Z,11.60
2023-03-21T01:16:40.086Z,11.50
2023-03-21T01:19:14.922Z,11.50
2023-03-21T01:21:48.973Z,11.50
2023-03-21T01:24:15.715Z,11.50
2023-03-21T01:26:42.381Z,11.40
2023-03-21T01:29:09.012Z,11.50
2023-03-21T01:31:35.752Z,11.40
2023-03-21T01:34:02.434Z,11.40
2023-03-21T01:36:29.164Z,11.40
2023-03-21T01:38:56.014Z,11.40
2023-03-21T01:41:43.136Z,11.40
2023-03-21T01:44:19.988Z,11.40
2023-03-21T01:47:07.260Z,11.40
2023-03-21T01:49:46.300Z,11.40
2023-03-21T01:52:33.574Z,11.40
2023-03-21T01:55:04.806Z,11.40
2023-03-21T01:57:43.788Z,11.40
2023-03-21T02:00:17.131Z,11.40
2023-03-21T02:02:52.667Z,11.40
2023-03-21T02:05:27.483Z,11.40
2023-03-21T02:07:54.154Z,11.40
2023-03-21T02:10:21.188Z,11.40
2023-03-21T02:12:48.118Z,11.40
2023-03-21T02:15:16.034Z,11.40
2023-03-21T02:17:56.719Z,11.30
2023-03-21T02:20:55.337Z,11.30
2023-03-21T02:23:31.010Z,11.30
2023-03-21T02:26:36.168Z,11.30
2023-03-21T02:29:17.882Z,11.30
2023-03-21T02:32:18.207Z,11.30
2023-03-21T02:35:13.974Z,11.30
2023-03-21T02:37:58.576Z,11.30
2023-03-21T02:40:35.463Z,11.20
2023-03-21T02:43:24.267Z,11.20
2023-03-21T02:46:02.709Z,11.20
2023-03-21T02:48:50.377Z,11.20
2023-03-21T02:51:21.519Z,11.20
2023-03-21T02:54:16.208Z,11.10
2023-03-21T02:56:43.052Z,11.10
2023-03-21T02:59:10.813Z,11.10
2023-03-21T03:01:37.958Z,11.10
2023-03-21T03:04:04.912Z,11.10
2023-03-21T03:06:49.165Z,11.10
2023-03-21T03:09:31.610Z,11.00
2023-03-21T03:12:19.418Z,11.00
2023-03-21T03:15:12.761Z,11.00
2023-03-21T03:18:13.511Z,10.90
2023-03-21T03:20:46.837Z,10.90
2023-03-21T03:23:25.936Z,10.90
2023-03-21T03:26:03.426Z,10.90
2023-03-21T03:28:37.067Z,10.80
2023-03-21T03:31:09.605Z,10.80
2023-03-21T03:33:40.184Z,10.80
2023-03-21T03:36:28.422Z,10.80
2023-03-21T03:38:58.067Z,10.80
2023-03-21T03:41:29.400Z,10.80
2023-03-21T03:44:00.109Z,10.80
2023-03-21T03:46:39.221Z,10.80
2023-03-21T03:49:17.839Z,10.80
2023-03-21T03:51:53.302Z,10.80
2023-03-21T03:54:32.211Z,10.80
2023-03-21T03:56:59.735Z,10.70
2023-03-21T03:59:26.533Z,10.70
2023-03-21T04:01:53.256Z,10.70
2023-03-21T04:04:22.943Z,10.70
2023-03-21T04:06:53.342Z,10.70
2023-03-21T04:09:25.067Z,10.60
2023-03-21T04:11:58.485Z,10.50
2023-03-21T04:14:35.517Z,10.50
2023-03-21T04:17:08.833Z,10.50
2023-03-21T04:19:36.101Z,10.30
2023-03-21T04:22:02.771Z,10.30
2023-03-21T04:24:33.372Z,10.30
2023-03-21T04:27:00.675Z,10.20
2023-03-21T04:29:29.676Z,10.10
2023-03-21T04:31:56.664Z,10.00
2023-03-21T04:34:24.104Z,9.90
2023-03-21T04:36:54.041Z,9.80
2023-03-21T04:39:21.938Z,9.70
2023-03-21T04:41:49.706Z,9.70
2023-03-21T04:44:17.528Z,9.50
2023-03-21T04:46:44.161Z,9.50
2023-03-21T04:49:10.944Z,9.30
2023-03-21T04:51:38.812Z,9.30
2023-03-21T04:54:05.764Z,9.20
2023-03-21T04:56:33.746Z,9.10
2023-03-21T04:59:03.255Z,9.00
2023-03-21T05:01:30.806Z,9.00
2023-03-21T05:04:02.192Z,8.80
2023-03-21T05:06:29.974Z,8.80
2023-03-21T05:09:00.126Z,8.70
2023-03-21T05:11:28.158Z,8.70
2023-03-21T05:13:54.773Z,8.60
2023-03-21T05:16:25.409Z,8.50
2023-03-21T05:18:55.489Z,8.50
2023-03-21T05:21:23.039Z,8.50
2023-03-21T05:23:55.551Z,8.40
2023-03-21T05:26:23.093Z,8.40
2023-03-21T05:28:50.441Z,8.30
2023-03-21T05:31:18.726Z,8.30
2023-03-21T05:33:46.321Z,8.20
2023-03-21T05:36:13.801Z,8.20
2023-03-21T05:38:46.006Z,8.20
2023-03-21T05:41:14.096Z,8.10
2023-03-21T05:43:40.917Z,8.00
2023-03-21T05:46:08.031Z,8.00
2023-03-21T05:48:34.969Z,8.00
2023-03-21T05:51:02.838Z,8.00
2023-03-21T05:53:29.499Z,8.00
2023-03-21T05:55:56.151Z,8.10
2023-03-21T05:58:22.950Z,8.10
2023-03-21T06:00:49.546Z,8.10
2023-03-21T06:03:16.761Z,8.20
2023-03-21T06:05:43.359Z,8.30
2023-03-21T06:08:10.179Z,8.40
2023-03-21T06:10:36.960Z,8.40
2023-03-21T06:13:03.791Z,8.50
2023-03-21T06:15:30.743Z,8.60
2023-03-21T06:17:57.391Z,8.70
2023-03-21T06:20:24.016Z,8.80
2023-03-21T06:22:50.808Z,8.90
2023-03-21T06:25:17.599Z,9.00
2023-03-21T06:27:44.224Z,9.10
2023-03-21T06:30:11.699Z,9.20
2023-03-21T06:32:38.340Z,9.30
2023-03-21T06:35:05.325Z,9.40
2023-03-21T06:37:31.982Z,9.50
2023-03-21T06:39:58.589Z,9.40
2023-03-21T06:42:25.229Z,9.40
2023-03-21T06:44:51.824Z,9.50
2023-03-21T06:47:18.452Z,9.50
2023-03-21T06:49:45.697Z,9.70
2023-03-21T06:52:12.395Z,9.90
2023-03-21T06:54:39.055Z,10.30
2023-03-21T06:57:05.897Z,10.80
2023-03-21T06:59:32.486Z,11.20
2023-03-21T07:01:59.088Z,11.50
2023-03-21T07:04:27.058Z,11.80
2023-03-21T07:06:53.881Z,12.10
2023-03-21T07:09:24.401Z,12.40
2023-03-21T07:11:53.474Z,12.70
2023-03-21T07:14:20.388Z,13.00
2023-03-21T07:16:47.122Z,13.30
2023-03-21T07:19:14.064Z,13.60
2023-03-21T07:21:40.842Z,13.80
2023-03-21T07:24:07.823Z,14.20
2023-03-21T07:26:34.477Z,14.50
2023-03-21T07:29:01.060Z,14.70
2023-03-21T07:31:29.513Z,14.80
2023-03-21T07:33:56.262Z,15.00
2023-03-21T07:36:23.080Z,15.20
2023-03-21T07:38:49.699Z,15.30
2023-03-21T07:43:47.897Z,15.70
2023-03-21T07:46:14.519Z,15.80
2023-03-21T07:48:41.173Z,16.00
2023-03-21T07:51:07.874Z,16.30
2023-03-21T07:53:34.482Z,16.40
2023-03-21T07:56:01.166Z,16.50
2023-03-21T07:58:28.495Z,16.60
2023-03-21T08:00:56.575Z,16.70
2023-03-21T08:03:23.960Z,16.80
2023-03-21T08:05:51.065Z,16.90
2023-03-21T08:08:17.902Z,16.90
2023-03-21T08:10:44.504Z,16.90
2023-03-21T08:13:11.585Z,16.90
2023-03-21T08:15:39.792Z,16.90
2023-03-21T08:18:06.560Z,17.00
2023-03-21T08:20:33.365Z,17.20
2023-03-21T08:23:00.231Z,17.30
2023-03-21T08:25:26.882Z,17.40
2023-03-21T08:27:53.666Z,17.50
2023-03-21T08:30:26.296Z,17.70
2023-03-21T08:33:00.470Z,17.80
2023-03-21T08:35:28.120Z,17.90
2023-03-21T08:37:54.741Z,17.90
2023-03-21T08:40:21.549Z,18.20
2023-03-21T08:42:48.409Z,18.30
2023-03-21T08:45:16.503Z,18.40
2023-03-21T08:47:43.638Z,18.60
2023-03-21T08:50:13.533Z,18.80
2023-03-21T08:52:40.158Z,19.00
2023-03-21T08:55:07.467Z,19.20
2023-03-21T08:57:34.193Z,19.50
2023-03-21T09:00:00.820Z,19.70
2023-03-21T09:02:27.457Z,20.00
2023-03-21T09:04:54.908Z,20.20
2023-03-21T09:07:22.209Z,20.40
2023-03-21T09:10:02.995Z,20.50
2023-03-21T09:12:38.998Z,20.60
2023-03-21T09:15:06.057Z,20.70
2023-03-21T09:17:33.371Z,20.70
2023-03-21T09:20:00.600Z,20.70
2023-03-21T09:22:27.687Z,20.70
2023-03-21T09:24:54.256Z,20.60
2023-03-21T09:27:23.166Z,20.50
2023-03-21T09:29:50.484Z,20.40
2023-03-21T09:32:18.234Z,20.50
2023-03-21T09:34:45.360Z,20.50
2023-03-21T09:37:13.695Z,20.50
2023-03-21T09:39:41.161Z,20.60
2023-03-21T09:42:24.880Z,20.70
2023-03-21T09:45:10.703Z,20.80
2023-03-21T09:47:54.122Z,20.90
2023-03-21T09:50:27.263Z,21.00
2023-03-21T09:53:07.107Z,21.10
2023-03-21T09:55:36.640Z,21.10
2023-03-21T09:58:22.269Z,21.20
2023-03-21T10:00:56.563Z,21.30
2023-03-21T10:03:29.272Z,21.30
2023-03-21T10:05:58.726Z,21.30
2023-03-21T10:08:31.173Z,21.30
2023-03-21T10:11:06.595Z,21.40
2023-03-21T10:13:35.887Z,21.50
2023-03-21T10:16:14.417Z,21.60
2023-03-21T10:18:42.828Z,21.60
2023-03-21T10:21:37.338Z,21.70
2023-03-21T10:24:04.381Z,21.70
2023-03-21T10:26:31.294Z,21.80
2023-03-21T10:29:01.888Z,21.70
2023-03-21T10:31:31.214Z,21.80
2023-03-21T10:34:02.598Z,21.80
2023-03-21T10:36:32.757Z,21.80
2023-03-21T10:39:07.012Z,21.80
2023-03-21T10:41:34.553Z,21.80
2023-03-21T10:44:11.720Z,21.70
2023-03-21T10:46:38.810Z,21.80
2023-03-21T10:49:08.225Z,21.80
2023-03-21T10:51:39.502Z,21.80
2023-03-21T10:54:11.939Z,21.80
2023-03-21T10:56:43.518Z,21.90
2023-03-21T10:59:20.376Z,21.80
2023-03-21T11:01:52.162Z,21.90
2023-03-21T11:04:23.915Z,21.80
2023-03-21T11:06:57.239Z,21.80
2023-03-21T11:09:26.495Z,21.80
2023-03-21T11:12:05.847Z,21.80
2023-03-21T11:14:46.845Z,22.00
2023-03-21T11:17:16.671Z,22.00
2023-03-21T11:20:00.454Z,22.10
2023-03-21T11:22:38.961Z,22.20
2023-03-21T11:25:12.002Z,22.20
2023-03-21T11:27:52.987Z,22.20
2023-03-21T11:30:25.752Z,22.30
2023-03-21T11:32:56.993Z,22.40
2023-03-21T11:35:33.031Z,22.50
2023-03-21T11:37:59.934Z,22.60
2023-03-21T11:40:30.706Z,22.60
2023-03-21T11:43:24.516Z,22.70
2023-03-21T11:46:14.658Z,22.80
2023-03-21T11:48:48.923Z,22.90
2023-03-21T11:51:47.744Z,23.00
2023-03-21T11:54:32.860Z,23.10
2023-03-21T11:57:30.753Z,23.10
2023-03-21T12:00:36.584Z,23.10
2023-03-21T12:03:16.744Z,23.20
2023-03-21T12:05:54.557Z,23.20
2023-03-21T12:08:32.741Z,23.30
2023-03-21T12:11:27.189Z,23.30
2023-03-21T12:14:19.812Z,23.40
2023-03-21T12:16:59.918Z,23.40
2023-03-21T12:19:54.254Z,23.30
2023-03-21T12:22:53.023Z,23.30
2023-03-21T12:25:28.966Z,23.20
2023-03-21T12:28:32.111Z,23.00
2023-03-21T12:31:12.997Z,22.90
2023-03-21T12:34:12.107Z,22.80
2023-03-21T12:37:15.762Z,22.80
2023-03-21T12:39:47.739Z,22.80
2023-03-21T12:43:00.294Z,22.70
2023-03-21T12:45:46.691Z,22.60
2023-03-21T12:48:33.634Z,22.50
2023-03-21T12:51:03.827Z,22.50
2023-03-21T12:53:47.525Z,22.40
2023-03-21T12:56:22.465Z,22.40
2023-03-21T12:58:56.206Z,22.30
2023-03-21T13:01:24.278Z,22.30
2023-03-21T13:04:26.281Z,22.30
2023-03-21T13:06:54.908Z,22.30
2023-03-21T13:09:41.684Z,22.20
2023-03-21T13:12:25.633Z,22.20
2023-03-21T13:15:26.267Z,22.10
2023-03-21T13:18:13.602Z,22.00
2023-03-21T13:20:45.895Z,21.80
2023-03-21T13:23:13.746Z,21.80
2023-03-21T13:25:46.882Z,21.70
2023-03-21T13:28:25.829Z,21.70
2023-03-21T13:30:53.393Z,21.70
2023-03-21T13:33:32.998Z,21.60
2023-03-21T13:36:08.038Z,21.50
2023-03-21T13:38:39.870Z,21.50
2023-03-21T13:41:14.204Z,21.40
2023-03-21T13:43:51.931Z,21.50
2023-03-21T13:46:35.829Z,21.40
2023-03-21T13:49:10.606Z,21.30
2023-03-21T13:51:37.240Z,21.30
2023-03-21T13:54:24.451Z,21.30
2023-03-21T13:56:56.700Z,21.20
2023-03-21T13:59:43.418Z,21.10
2023-03-21T14:02:30.739Z,21.00
2023-03-21T14:05:17.560Z,20.80
2023-03-21T14:07:47.376Z,20.80
2023-03-21T14:10:34.387Z,20.70
2023-03-21T14:13:02.992Z,20.70
2023-03-21T14:15:49.725Z,20.60
2023-03-21T14:18:28.430Z,20.50
2023-03-21T14:21:02.288Z,20.50
2023-03-21T14:23:30.186Z,20.40
2023-03-21T14:25:56.996Z,20.30
2023-03-21T14:28:29.667Z,20.30
2023-03-21T14:30:59.990Z,20.30
2023-03-21T14:33:37.592Z,20.20
2023-03-21T14:36:10.590Z,20.20
2023-03-21T14:38:38.346Z,20.10
2023-03-21T14:41:05.861Z,20.00
2023-03-21T14:43:34.279Z,20.00
2023-03-21T14:46:01.457Z,19.90
2023-03-21T14:48:33.446Z,19.90
2023-03-21T14:51:10.079Z,19.80
2023-03-21T14:53:39.797Z,19.70
2023-03-21T14:56:27.005Z,19.60
2023-03-21T14:58:54.532Z,19.50
2023-03-21T15:01:29.712Z,19.30
2023-03-21T15:04:00.513Z,19.20
2023-03-21T15:06:27.463Z,19.10
2023-03-21T15:08:59.184Z,19.00
2023-03-21T15:11:34.701Z,18.80
2023-03-21T15:14:07.698Z,18.70
2023-03-21T15:16:34.790Z,18.70
2023-03-21T15:19:03.050Z,18.60
2023-03-21T15:21:38.330Z,18.50
2023-03-21T15:24:27.034Z,18.40
2023-03-21T15:27:02.412Z,18.40
2023-03-21T15:29:29.921Z,18.30
2023-03-21T15:31:56.822Z,18.20
2023-03-21T15:34:28.311Z,18.20
2023-03-21T15:36:58.623Z,18.20
2023-03-21T15:39:28.510Z,18.10
2023-03-21T15:42:07.384Z,18.10
2023-03-21T15:44:35.440Z,18.00
2023-03-21T15:47:02.419Z,18.00
2023-03-21T15:49:32.375Z,17.80
2023-03-21T15:52:16.521Z,17.80
2023-03-21T15:54:43.446Z,17.80
2023-03-21T15:57:22.754Z,17.70
2023-03-21T15:59:50.566Z,17.70
2023-03-21T16:02:23.363Z,17.70
2023-03-21T16:05:00.867Z,17.60
2023-03-21T16:07:27.789Z,17.50
2023-03-21T16:10:04.548Z,17.50
2023-03-21T16:12:31.269Z,17.50
2023-03-21T16:14:57.892Z,17.40
2023-03-21T16:17:37.505Z,17.40
2023-03-21T16:20:17.913Z,17.40
2023-03-21T16:22:44.489Z,17.30
2023-03-21T16:25:11.134Z,17.30
2023-03-21T16:27:37.798Z,17.20
2023-03-21T16:30:04.991Z,17.20
2023-03-21T16:32:31.605Z,17.20
2023-03-21T16:34:58.186Z,17.10
2023-03-21T16:37:24.821Z,17.00
2023-03-21T16:39:51.780Z,17.00
2023-03-21T16:42:19.570Z,16.90
2023-03-21T16:44:46.174Z,16.90
2023-03-21T16:47:22.960Z,16.80
2023-03-21T16:49:49.843Z,16.80
2023-03-21T16:52:16.455Z,16.70
2023-03-21T16:54:43.339Z,16.70
2023-03-21T16:57:27.559Z,16.60
2023-03-21T16:59:55.658Z,16.60
2023-03-21T17:02:24.921Z,16.50
2023-03-21T17:04:51.545Z,16.50
2023-03-21T17:07:18.618Z,16.40
2023-03-21T17:09:45.323Z,16.40
2023-03-21T17:12:16.515Z,16.30
2023-03-21T17:14:44.217Z,16.30
2023-03-21T17:17:13.392Z,16.20
2023-03-21T17:19:40.567Z,16.20
2023-03-21T17:22:08.397Z,16.10
2023-03-21T17:24:35.816Z,16.00
2023-03-21T17:27:04.353Z,16.00
2023-03-21T17:29:31.147Z,15.90
2023-03-21T17:31:57.908Z,15.80
2023-03-21T17:34:24.799Z,15.80
2023-03-21T17:36:51.610Z,15.80
2023-03-21T17:39:22.480Z,15.70
2023-03-21T17:41:49.990Z,15.70
2023-03-21T17:44:16.592Z,15.70
2023-03-21T17:46:43.371Z,15.50
2023-03-21T17:49:14.015Z,15.50
2023-03-21T17:51:41.417Z,15.40
2023-03-21T17:54:08.264Z,15.30
2023-03-21T17:56:37.499Z,15.30
2023-03-21T17:59:07.171Z,15.30
2023-03-21T18:01:35.390Z,15.30
2023-03-21T18:04:04.756Z,15.20
2023-03-21T18:06:33.945Z,15.20
2023-03-21T18:09:06.943Z,15.20
2023-03-21T18:11:33.995Z,15.20
2023-03-21T18:14:15.027Z,15.10
2023-03-21T18:16:42.776Z,15.10
2023-03-21T18:19:10.849Z,15.00
2023-03-21T18:21:40.506Z,15.00
2023-03-21T18:24:07.596Z,15.00
2023-03-21T18:26:34.264Z,14.90
2023-03-21T18:30:03.808Z,14.90
2023-03-21T18:32:04.345Z,14.80
2023-03-21T18:34:31.363Z,14.80
2023-03-21T18:36:58.001Z,14.80
2023-03-21T18:39:24.645Z,14.80
2023-03-21T18:41:52.520Z,14.70
2023-03-21T18:44:21.183Z,14.80
2023-03-21T18:46:51.910Z,14.70
2023-03-21T18:50:02.001Z,14.70
2023-03-21T18:52:06.588Z,14.70
2023-03-21T18:54:33.954Z,14.70
2023-03-21T18:59:47.716Z,14.60
2023-03-21T19:02:16.021Z,14.60
2023-03-21T19:04:43.301Z,14.60
2023-03-21T19:07:10.378Z,14.50
2023-03-21T19:10:15.879Z,14.50
2023-03-21T19:12:25.487Z,14.50
2023-03-21T19:14:52.109Z,14.40
2023-03-21T19:20:06.055Z,14.40
2023-03-21T19:22:32.735Z,14.30
2023-03-21T19:24:59.387Z,14.30
2023-03-21T19:27:26.083Z,14.30
2023-03-21T19:30:10.730Z,14.20
2023-03-21T19:32:40.035Z,14.10
2023-03-21T19:35:07.396Z,14.10
2023-03-21T19:37:36.171Z,14.00
2023-03-21T19:40:05.303Z,14.00
2023-03-21T19:42:32.474Z,14.00
2023-03-21T19:44:59.184Z,13.90
2023-03-21T19:47:26.310Z,13.90
2023-03-21T19:52:40.736Z,13.80
2023-03-21T19:55:08.046Z,13.80
2023-03-21T19:57:35.408Z,13.70
2023-03-21T20:00:02.303Z,13.80
2023-03-21T20:02:37.108Z,13.70
2023-03-21T20:05:06.574Z,13.70
2023-03-21T20:07:33.261Z,13.70
2023-03-21T20:10:00.261Z,13.60
2023-03-21T20:12:27.573Z,13.60
2023-03-21T20:15:07.193Z,13.50
2023-03-21T20:17:41.740Z,13.40
2023-03-21T20:20:10.030Z,13.30
2023-03-21T20:23:05.140Z,13.30
2023-03-21T20:25:23.655Z,13.20
2023-03-21T20:28:06.498Z,13.10
2023-03-21T20:30:37.224Z,13.00
2023-03-21T20:33:04.203Z,12.90
2023-03-21T20:36:13.853Z,12.90
2023-03-21T20:38:20.464Z,12.80
2023-03-21T20:40:47.991Z,12.70
2023-03-21T20:44:04.975Z,12.60
2023-03-21T20:46:03.110Z,12.60
2023-03-21T20:48:30.609Z,12.50
2023-03-21T20:51:15.466Z,12.40
2023-03-21T20:53:48.750Z,12.40
2023-03-21T20:56:15.386Z,12.40
2023-03-21T20:59:14.588Z,12.30
2023-03-21T21:01:28.910Z,12.30
2023-03-21T21:03:57.480Z,12.30
2023-03-21T21:06:24.511Z,12.30
2023-03-21T21:08:51.359Z,12.20
2023-03-21T21:12:03.032Z,12.10
2023-03-21T21:14:05.508Z,12.00
2023-03-21T21:16:33.140Z,11.90
2023-03-21T21:18:59.744Z,11.80
2023-03-21T21:21:27.706Z,11.80
2023-03-21T21:23:54.309Z,11.70
2023-03-21T21:26:20.953Z,11.60
2023-03-21T21:28:47.697Z,11.60
2023-03-21T21:31:16.735Z,11.50
2023-03-21T21:33:49.979Z,11.50
2023-03-21T21:36:16.940Z,11.40
2023-03-21T21:38:43.578Z,11.40
2023-03-21T21:41:17.720Z,11.30
2023-03-21T21:43:44.289Z,11.30
2023-03-21T21:46:11.567Z,11.30
2023-03-21T21:48:40.438Z,11.30
2023-03-21T21:51:07.380Z,11.30
2023-03-21T21:53:36.382Z,11.20
2023-03-21T21:56:06.396Z,11.20
2023-03-21T21:58:33.817Z,11.20
2023-03-21T22:01:04.465Z,11.10
2023-03-21T22:03:41.001Z,11.00
2023-03-21T22:06:09.608Z,11.00
2023-03-21T22:08:36.994Z,10.90
2023-03-21T22:11:05.725Z,10.80
2023-03-21T22:13:32.352Z,10.70
2023-03-21T22:15:59.041Z,10.60
2023-03-21T22:18:25.936Z,10.50
2023-03-21T22:20:52.596Z,10.50
2023-03-21T22:23:19.442Z,10.40
2023-03-21T22:25:52.267Z,10.30
2023-03-21T22:28:21.892Z,10.30
2023-03-21T22:30:48.856Z,10.20
2023-03-21T22:33:15.639Z,10.20
2023-03-21T22:35:42.317Z,10.10
2023-03-21T22:38:08.952Z,10.10
2023-03-21T22:40:35.816Z,10.00
2023-03-21T22:43:02.789Z,10.00
2023-03-21T22:45:29.558Z,10.00
2023-03-21T22:47:56.130Z,9.90
2023-03-21T22:50:22.734Z,9.90
2023-03-21T22:52:49.321Z,9.80
2023-03-21T22:55:15.956Z,9.80
2023-03-21T22:57:42.723Z,9.80
2023-03-21T23:00:13.452Z,9.80
2023-03-21T23:02:41.326Z,9.70
2023-03-21T23:05:09.700Z,9.60
2023-03-21T23:07:36.399Z,9.60
2023-03-21T23:10:05.071Z,9.60
2023-03-21T23:12:32.209Z,9.50
2023-03-21T23:14:58.814Z,9.50
2023-03-21T23:17:26.644Z,9.50
2023-03-21T23:19:53.314Z,9.50
2023-03-21T23:22:19.973Z,9.50
2023-03-21T23:24:47.003Z,9.50
2023-03-21T23:27:14.247Z,9.50
2023-03-21T23:29:40.921Z,9.40
2023-03-21T23:32:07.520Z,9.50
2023-03-21T23:34:34.140Z,9.50
2023-03-21T23:37:00.760Z,9.40
2023-03-21T23:39:28.286Z,9.40
2023-03-21T23:41:55.035Z,9.40
2023-03-21T23:44:21.654Z,9.40
2023-03-21T23:46:48.254Z,9.30
2023-03-21T23:49:15.420Z,9.30
2023-03-21T23:51:42.183Z,9.30
2023-03-21T23:54:09.043Z,9.30
2023-03-21T23:56:36.438Z,9.20
2023-03-21T23:59:03.679Z,9.20
